Aérodrome :
LOGIN :

S'inscrire | Disclaimer

   EN    FR    IT 

 










Légende :    VFR   VFR Marginal   IFR   IFR Intensif   IFR Très Intensif
Visi : 
Plafond : 
>= 8 km
>= 3000ft
5 à 8 km
1000 à 3000 ft
1500m à 5 km
500 à 1000 ft
800 à 1500m
200 à 500 ft
< 800m
< 200 ft
Symboles :   Orages  Brouillard  Fortes neiges  Fortes précipitations  Vent > 20 kt
SIGMETs :   Divers  Orages  Givrage  Turbulence  Onde Orograph.  Cendres Volcan.







- Altitude de l'aérodrome : 3368 ft


LSGC - Les Eplatures

DERNIER METAR :
  • 101320Z 23004KT 190V290 2000 SN OVC005 01/00 Q1023 R/SNOCLO

METARs EXPIRÉS :
  • 101250Z AUTO VRB03KT 9999 -SN BKN/// 01/M00 Q1023
  • 101220Z AUTO VRB02KT 9999 OVC004 01/M00 Q1024 RESN
  • 101150Z AUTO VRB03KT 9999 BKN008 01/M01 Q1024 RESN
  • 101120Z AUTO VRB03KT 9999 -SN BKN/// 01/M00 Q1024
  • 101050Z AUTO VRB03KT 1500 SN BKN/// 01/00 Q1024
  • 101020Z AUTO 23003KT 170V280 2100 SN BKN/// 00/M00 Q1024

TAF TAF LSGC
Valide du 10 à 12h jusqu'au 10 à 21h UTC


101125Z 1012/1021 23006KT 9999 BKN009
TEMPO 1012/1021 -SHSN
PROB30
TEMPO 1012/1021 1500 SHSN BKN003
Pas de NOTAMs connus pour ce terrain.



MET'MAP, la Météo Aéronautique d'un coup d'oeil ! - Copyright ORBIFLY Décembre 2007 - Disclaimer

ORBIFLY MET'MAP TEAM :

Programmation & Développement : Alexandra Zaïnal
Conception & Développement : Baudouin d'Aumeries
Co-Programmation & Développement : Marc-Olivier Méhu
Soutien technique & logistique : Manuel Goepfert

Contact : metmap@orbifly.com




SOURCES & CREDITS :

   NOAA